Time;durP1;ratioP1;P1;durP2;ratioP2;P2;SDS_P1;SDS_P2;PMS_P1;PMS_P2;Temp;Humidity;BMP_temperature;BMP_pressure;BME280_temperature;BME280_humidity;BME280_pressure;Samples;Min_cycle;Max_cycle;Signal;HPM_P1;HPM_P2
2022/11/03 00:00:24;;;;;;;24.38;10.95;;;;;;;10.01;100.00;93147.00;4867549;29;20124;-79
2022/11/03 00:02:50;;;;;;;26.05;11.30;;;;;;;10.02;100.00;93147.78;4849119;29;20038;-78
2022/11/03 00:08:52;;;;;;;24.75;9.93;;;;;;;9.99;100.00;93132.63;4847718;29;20061;-78
2022/11/03 00:11:17;;;;;;;26.92;10.40;;;;;;;9.96;100.00;93148.84;4831075;29;20341;-79
2022/11/03 00:17:06;;;;;;;20.42;9.73;;;;;;;9.92;100.00;93148.59;4865910;29;20048;-79
2022/11/03 00:19:31;;;;;;;23.45;9.07;;;;;;;9.95;100.00;93149.88;4864505;29;20403;-79
2022/11/03 00:21:58;;;;;;;20.63;9.30;;;;;;;9.95;100.00;93140.22;4863855;29;20045;-78
2022/11/03 00:24:23;;;;;;;20.67;9.45;;;;;;;9.97;100.00;93142.56;4864053;29;20037;-78
2022/11/03 00:26:49;;;;;;;20.23;8.43;;;;;;;9.98;100.00;93134.44;4865908;29;20113;-79
2022/11/03 00:33:25;;;;;;;20.83;8.55;;;;;;;9.98;100.00;93133.69;4864048;29;20041;-79
2022/11/03 00:35:57;;;;;;;20.45;8.43;;;;;;;9.96;100.00;93136.56;4864908;29;20049;-79
2022/11/03 00:38:23;;;;;;;18.10;8.48;;;;;;;9.99;100.00;93137.84;4866170;29;20048;-79
2022/11/03 00:44:42;;;;;;;;;;;;;;;10.05;100.00;93136.00;4866259;29;20400;-79
2022/11/03 00:47:27;;;;;;;23.25;8.60;;;;;;;10.09;100.00;93135.22;4852853;29;19921;-79
2022/11/03 00:49:53;;;;;;;19.38;7.60;;;;;;;10.10;100.00;93128.91;4848889;29;20046;-79
2022/11/03 00:52:18;;;;;;;21.90;9.63;;;;;;;10.13;100.00;93131.03;4878238;29;20043;-78
2022/11/03 00:55:21;;;;;;;24.75;10.85;;;;;;;10.16;100.00;93127.09;4865237;29;20052;-79
2022/11/03 00:57:47;;;;;;;21.30;11.05;;;;;;;10.16;100.00;93127.09;4865303;29;20038;-79
2022/11/03 01:00:13;;;;;;;23.08;10.10;;;;;;;10.13;100.00;93131.03;4863897;29;20529;-78
2022/11/03 01:02:39;;;;;;;24.33;9.45;;;;;;;10.09;100.00;93127.38;4864461;29;20046;-79
2022/11/03 01:07:56;;;;;;;21.35;10.50;;;;;;;10.09;100.00;93123.97;4868228;29;20056;-78
2022/11/03 01:10:22;;;;;;;29.98;11.48;;;;;;;10.06;100.00;93122.66;4868100;29;20081;-78
2022/11/03 01:16:41;;;;;;;;;;;;;;;10.02;100.00;93113.78;4869002;29;20076;-79
2022/11/03 01:22:29;;;;;;;26.10;11.30;;;;;;;9.97;100.00;93095.47;4868294;29;20045;-79
2022/11/03 01:24:54;;;;;;;26.23;11.57;;;;;;;9.97;100.00;93098.91;4897684;29;20404;-79
2022/11/03 01:27:59;;;;;;;28.75;12.10;;;;;;;9.95;100.00;93090.53;4882711;29;20106;-78
2022/11/03 01:30:25;;;;;;;33.63;12.60;;;;;;;9.95;100.00;93092.34;4866385;29;20042;-79
2022/11/03 01:32:51;;;;;;;27.55;12.00;;;;;;;9.93;100.00;93086.59;4867879;29;20080;-79
2022/11/03 01:35:16;;;;;;;25.70;10.20;;;;;;;9.93;100.00;93089.22;4882097;29;20061;-78
2022/11/03 01:37:42;;;;;;;26.50;10.32;;;;;;;9.92;100.00;93090.28;4881830;29;20047;-79
2022/11/03 01:40:29;;;;;;;24.38;10.05;;;;;;;9.90;100.00;93087.13;4881709;29;20037;-79
2022/11/03 01:42:55;;;;;;;26.63;10.25;;;;;;;9.87;100.00;93090.28;4868289;29;20044;-79
2022/11/03 01:45:20;;;;;;;20.88;8.60;;;;;;;9.86;100.00;93088.72;4882480;29;20038;-79
2022/11/03 01:47:47;;;;;;;21.67;9.23;;;;;;;9.84;100.00;93085.59;4852724;29;20070;-79
2022/11/03 01:50:18;;;;;;;22.33;8.23;;;;;;;9.84;100.00;93098.66;4870249;29;20047;-78
2022/11/03 01:52:49;;;;;;;15.80;8.43;;;;;;;9.83;100.00;93094.50;4882955;29;20041;-79
2022/11/03 01:55:38;;;;;;;19.08;8.65;;;;;;;9.80;100.00;93093.97;4881922;29;20042;-79
2022/11/03 01:58:37;;;;;;;30.02;7.72;;;;;;;9.80;100.00;93093.97;4867745;29;20045;-79
2022/11/03 02:01:03;;;;;;;21.83;8.00;;;;;;;9.79;100.00;93096.84;4849099;29;20049;-78
2022/11/03 02:03:34;;;;;;;19.85;8.20;;;;;;;9.79;100.00;93100.25;4863064;29;20038;-79
2022/11/03 02:06:22;;;;;;;19.23;7.63;;;;;;;9.80;100.00;93096.59;4848140;29;20076;-78
2022/11/03 02:09:06;;;;;;;21.05;8.00;;;;;;;9.84;100.00;93103.88;4846954;29;20053;-78
2022/11/03 02:14:20;;;;;;;18.90;7.63;;;;;;;9.88;100.00;93104.94;4848511;29;20050;-78
2022/11/03 02:16:53;;;;;;;21.27;8.10;;;;;;;9.89;100.00;93096.03;4862569;29;20152;-79
2022/11/03 02:25:56;;;;;;;21.30;7.35;;;;;;;9.98;100.00;93094.44;4875222;29;20183;-78
2022/11/03 02:28:25;;;;;;;17.17;7.78;;;;;;;9.96;100.00;93086.09;4866914;29;20106;-79
2022/11/03 02:31:29;;;;;;;20.80;7.95;;;;;;;9.99;100.00;93086.31;4858907;29;20496;-78
2022/11/03 02:33:56;;;;;;;15.82;7.72;;;;;;;10.01;100.00;93089.44;4830457;29;20398;-79
2022/11/03 02:39:57;;;;;;;32.28;13.93;;;;;;;10.04;100.00;93077.66;4829785;29;20070;-78
2022/11/03 02:42:24;;;;;;;29.17;14.48;;;;;;;10.06;100.00;93069.56;4828435;29;20064;-79
2022/11/03 02:44:56;;;;;;;35.00;12.95;;;;;;;10.04;100.00;93069.81;4830450;29;20043;-78
2022/11/03 02:47:22;;;;;;;;;;;;;;;10.14;100.00;93067.16;4830416;29;20049;-78
2022/11/03 02:49:50;;;;;;;27.85;12.73;;;;;;;10.21;100.00;93062.41;4842930;29;19919;-78
2022/11/03 02:52:46;;;;;;;25.85;11.80;;;;;;;10.12;100.00;93064.03;4861771;29;20038;-79
2022/11/03 02:55:37;;;;;;;28.83;12.43;;;;;;;10.09;100.00;93061.97;4847455;29;20045;-78
2022/11/03 02:58:29;;;;;;;27.50;12.57;;;;;;;10.06;100.00;93057.25;4847737;29;20038;-79
2022/11/03 03:01:22;;;;;;;31.13;13.63;;;;;;;10.04;100.00;93050.72;4848305;29;20098;-79
2022/11/03 03:03:52;;;;;;;30.45;13.45;;;;;;;10.13;100.00;93055.16;4847788;29;20049;-78
2022/11/03 03:06:22;;;;;;;32.20;14.90;;;;;;;10.05;100.00;93060.94;4847375;29;20030;-79
2022/11/03 03:08:54;;;;;;;34.08;13.75;;;;;;;10.05;100.00;93058.31;4846071;29;20532;-79
2022/11/03 03:11:38;;;;;;;39.70;15.93;;;;;;;9.99;100.00;93052.31;4860075;29;20034;-79
2022/11/03 03:14:24;;;;;;;32.40;15.00;;;;;;;10.01;100.00;93052.06;4845203;29;20060;-78
2022/11/03 03:16:57;;;;;;;33.45;15.15;;;;;;;10.00;100.00;93053.13;4861519;29;20037;-79
2022/11/03 03:19:28;;;;;;;30.63;16.45;;;;;;;9.99;100.00;93048.91;4847915;29;20046;-79
2022/11/03 03:21:57;;;;;;;36.38;16.73;;;;;;;10.00;100.00;93045.28;4848306;29;20053;-79
2022/11/03 03:28:20;;;;;;;;;;;;;;;10.00;100.00;93040.81;4846563;29;20072;-77
2022/11/03 03:31:07;;;;;;;36.22;15.63;;;;;;;10.01;100.00;93049.44;4858559;29;19917;-77
2022/11/03 03:33:33;;;;;;;42.38;16.77;;;;;;;10.00;100.00;93043.44;4852666;29;20453;-77
2022/11/03 03:36:11;;;;;;;33.03;15.65;;;;;;;10.03;100.00;93047.34;4843842;29;20038;-77
2022/11/03 03:38:41;;;;;;;34.22;15.85;;;;;;;10.01;100.00;93047.59;4843652;29;20479;-77
2022/11/03 03:41:12;;;;;;;31.75;15.55;;;;;;;10.03;100.00;93054.41;4841924;29;20484;-77
2022/11/03 03:43:39;;;;;;;42.00;16.92;;;;;;;10.02;100.00;93045.78;4847406;29;20499;-78
2022/11/03 03:46:07;;;;;;;33.80;15.30;;;;;;;10.02;100.00;93043.16;4879913;29;20025;-77
2022/11/03 03:48:33;;;;;;;32.17;15.23;;;;;;;10.11;100.00;93036.31;4879064;29;20033;-77
2022/11/03 03:51:00;;;;;;;28.33;15.20;;;;;;;10.11;100.00;93040.75;4878322;29;20041;-78
2022/11/03 03:53:28;;;;;;;39.05;16.63;;;;;;;10.01;100.00;93028.50;4878675;29;20033;-78
2022/11/03 03:55:55;;;;;;;43.53;17.40;;;;;;;10.06;100.00;93038.16;4879683;29;20368;-78
2022/11/03 03:58:20;;;;;;;34.65;16.20;;;;;;;10.11;100.00;93032.91;4878193;29;20419;-77
2022/11/03 04:00:46;;;;;;;36.38;16.20;;;;;;;10.10;100.00;93032.13;4878073;29;20347;-77
2022/11/03 04:03:21;;;;;;;34.38;14.52;;;;;;;10.18;100.00;93031.56;4874441;29;20041;-77
2022/11/03 04:05:46;;;;;;;28.67;14.52;;;;;;;10.09;100.00;93033.19;4842119;29;20540;-77
2022/11/03 04:08:14;;;;;;;30.15;16.15;;;;;;;10.07;100.00;93021.44;4841968;29;20091;-78
2022/11/03 04:10:39;;;;;;;37.65;16.35;;;;;;;10.05;100.00;93019.09;4841578;29;20102;-77
2022/11/03 04:23:49;;;;;;;26.77;13.32;;;;;;;10.03;100.00;93029.03;4870398;29;20041;-78
2022/11/03 04:26:17;;;;;;;26.15;12.77;;;;;;;10.05;100.00;93034.78;4880845;29;20025;-79
2022/11/03 04:32:15;;;;;;;32.95;13.10;;;;;;;10.06;100.00;93032.94;4884299;29;20045;-79
2022/11/03 04:34:41;;;;;;;27.75;12.77;;;;;;;10.04;100.00;93027.19;4883933;29;20037;-79
2022/11/03 04:37:14;;;;;;;30.75;12.55;;;;;;;10.08;100.00;93031.63;4884942;29;20096;-78
2022/11/03 04:39:40;;;;;;;85.78;18.00;;;;;;;10.31;100.00;93026.81;4866079;29;20037;-78
2022/11/03 04:42:20;;;;;;;35.85;15.82;;;;;;;10.25;100.00;93020.03;4865912;29;20042;-77
2022/11/03 04:44:47;;;;;;;131.02;16.73;;;;;;;10.18;100.00;93023.72;4848227;29;20473;-78
2022/11/03 04:47:14;;;;;;;49.15;16.48;;;;;;;10.14;100.00;93020.06;4847805;29;20034;-78
2022/11/03 04:49:58;;;;;;;65.75;16.77;;;;;;;10.08;100.00;93015.91;4853897;29;20037;-78
2022/11/03 04:52:24;;;;;;;33.28;14.43;;;;;;;10.06;100.00;93012.78;4865625;29;20132;-77
2022/11/03 04:54:52;;;;;;;29.95;14.75;;;;;;;10.06;100.00;93012.78;4864737;29;20073;-78
2022/11/03 04:57:17;;;;;;;32.40;15.65;;;;;;;10.06;100.00;93006.78;4865040;29;20090;-78
2022/11/03 04:59:46;;;;;;;34.10;13.75;;;;;;;10.06;100.00;93018.03;4864215;29;20080;-79
2022/11/03 05:02:16;;;;;;;30.67;14.25;;;;;;;10.06;100.00;93007.56;4864582;29;20093;-79
2022/11/03 05:04:42;;;;;;;32.78;14.20;;;;;;;10.06;100.00;93002.31;4865470;29;20042;-79
2022/11/03 05:07:17;;;;;;;34.85;13.68;;;;;;;10.04;100.00;92995.81;4865480;29;20105;-78
2022/11/03 05:09:43;;;;;;;33.25;14.30;;;;;;;10.08;100.00;93005.47;4863400;29;20535;-79
2022/11/03 05:12:09;;;;;;;27.35;12.93;;;;;;;10.12;100.00;93009.09;4863619;29;20076;-78
2022/11/03 05:14:36;;;;;;;35.05;14.52;;;;;;;10.11;100.00;93004.94;4863834;29;20078;-78
2022/11/03 05:17:06;;;;;;;28.20;13.50;;;;;;;10.14;100.00;93004.38;4863827;29;20064;-78
2022/11/03 05:19:41;;;;;;;33.38;13.50;;;;;;;10.08;100.00;93002.06;4864564;29;20045;-78
2022/11/03 05:22:44;;;;;;;34.80;15.45;;;;;;;10.04;100.00;93011.50;4864855;29;20041;-78
2022/11/03 05:25:27;;;;;;;;;;;;;;;10.00;100.00;93008.66;4879041;29;20037;-78
2022/11/03 05:27:53;;;;;;;34.95;15.48;;;;;;;10.00;100.00;93000.81;4882177;29;20271;-79
2022/11/03 05:30:18;;;;;;;39.70;17.45;;;;;;;10.00;100.00;93000.81;4867908;29;20086;-79
2022/11/03 05:32:45;;;;;;;52.88;17.70;;;;;;;10.00;100.00;93001.59;4848714;29;20053;-79
2022/11/03 05:35:28;;;;;;;51.90;18.65;;;;;;;9.95;100.00;92993.78;4864893;29;20128;-78
2022/11/03 05:37:54;;;;;;;48.80;18.75;;;;;;;9.97;100.00;92986.44;4864942;29;20093;-79
2022/11/03 05:40:22;;;;;;;47.53;19.30;;;;;;;9.96;100.00;92981.47;4863615;29;20041;-79
2022/11/03 05:46:16;;;;;;;278.42;24.05;;;;;;;10.05;100.00;92995.53;4846319;29;20409;-79
2022/11/03 05:48:43;;;;;;;241.68;22.55;;;;;;;10.15;100.00;92999.94;4860462;29;20041;-78
2022/11/03 05:51:21;;;;;;;113.80;18.70;;;;;;;10.09;100.00;92996.56;4862662;29;20053;-77
2022/11/03 05:53:54;;;;;;;243.85;24.45;;;;;;;10.05;100.00;92995.53;4863376;29;20045;-78
2022/11/03 05:56:23;;;;;;;141.38;18.70;;;;;;;10.07;100.00;92997.91;4864409;29;20037;-79
2022/11/03 05:58:51;;;;;;;101.07;15.02;;;;;;;10.10;100.00;92992.88;4864875;29;20113;-78
2022/11/03 06:01:34;;;;;;;1247.75;43.03;;;;;;;10.11;100.00;92998.91;4865032;29;20069;-78
2022/11/03 06:04:11;;;;;;;110.47;4.40;;;;;;;10.11;100.00;92999.69;4865222;29;20067;-78
2022/11/03 06:06:37;;;;;;;539.45;14.57;;;;;;;10.04;100.00;93001.03;4863387;29;20065;-78
2022/11/03 06:09:30;;;;;;;790.08;21.23;;;;;;;9.87;100.00;92998.78;4864794;29;20532;-78
2022/11/03 06:16:00;;;;;;;692.17;19.63;;;;;;;9.78;100.00;92999.31;4864698;29;20041;-79
2022/11/03 06:18:32;;;;;;;733.47;22.05;;;;;;;9.78;100.00;93004.56;4864577;29;20136;-79
2022/11/03 06:27:35;;;;;;;257.05;9.02;;;;;;;9.83;100.00;93001.13;4864751;29;20046;-78
2022/11/03 06:30:18;;;;;;;167.43;10.63;;;;;;;9.88;100.00;93006.34;4863874;29;20136;-78
2022/11/03 06:33:01;;;;;;;548.50;19.05;;;;;;;9.98;100.00;93005.53;4864967;29;20049;-80
2022/11/03 06:35:26;;;;;;;799.65;22.80;;;;;;;9.88;100.00;93000.31;4864126;29;20042;-80
2022/11/03 06:37:52;;;;;;;1397.43;42.20;;;;;;;9.92;100.00;93006.59;4834309;29;20033;-79
2022/11/03 06:40:18;;;;;;;1380.22;45.85;;;;;;;9.85;100.00;93004.25;4851530;29;20105;-79
2022/11/03 06:42:43;;;;;;;833.47;27.80;;;;;;;9.81;100.00;93011.06;4863571;29;20037;-79
2022/11/03 06:45:22;;;;;;;1572.00;49.95;;;;;;;9.72;100.00;93013.47;4864148;29;20445;-78
2022/11/03 06:47:48;;;;;;;1466.05;41.03;;;;;;;9.66;100.00;93006.72;4863682;29;20048;-79
2022/11/03 06:50:32;;;;;;;1609.75;54.67;;;;;;;9.69;100.00;93018.44;4861018;29;20077;-79
2022/11/03 06:53:02;;;;;;;1693.53;52.28;;;;;;;9.68;100.00;93017.69;4859654;29;20041;-78
2022/11/03 06:55:34;;;;;;;1807.65;53.65;;;;;;;9.61;100.00;93006.69;4850254;29;20050;-78
2022/11/03 06:58:13;;;;;;;1822.65;52.58;;;;;;;9.64;100.00;93016.66;4894038;29;20041;-79
2022/11/03 07:00:40;;;;;;;1999.90;58.22;;;;;;;9.62;100.00;93012.72;4893406;29;20064;-79
2022/11/03 07:03:32;;;;;;;1336.63;40.08;;;;;;;9.65;100.00;93010.34;4846136;29;20040;-79
2022/11/03 07:06:10;;;;;;;1227.72;35.25;;;;;;;9.72;100.00;93003.00;4862321;29;20037;-79
2022/11/03 07:08:42;;;;;;;704.90;26.90;;;;;;;9.81;100.00;93008.47;4881243;29;20095;-79
2022/11/03 07:11:14;;;;;;;744.20;26.83;;;;;;;9.80;100.00;93007.69;4872508;29;20045;-79
2022/11/03 07:13:40;;;;;;;367.30;21.55;;;;;;;9.86;100.00;93008.47;4862251;29;20356;-79
2022/11/03 07:16:24;;;;;;;116.65;18.92;;;;;;;9.86;100.00;93003.22;4863109;29;20030;-79
2022/11/03 07:18:49;;;;;;;55.15;18.60;;;;;;;9.96;100.00;93018.09;4861726;29;20086;-79
2022/11/03 07:21:46;;;;;;;45.70;19.58;;;;;;;9.99;100.00;93012.31;4861746;29;20134;-78
2022/11/03 07:24:17;;;;;;;52.92;21.83;;;;;;;10.00;100.00;93013.88;4856664;29;20040;-79
2022/11/03 07:26:43;;;;;;;56.85;22.45;;;;;;;10.06;100.00;93012.78;4881826;29;20041;-78
2022/11/03 07:29:20;;;;;;;54.20;22.40;;;;;;;10.12;100.00;93001.25;4871841;29;20048;-78
2022/11/03 07:31:50;;;;;;;275.02;21.80;;;;;;;10.31;100.00;92998.03;4886754;29;20190;-77
2022/11/03 07:34:21;;;;;;;123.53;19.88;;;;;;;10.31;100.00;93008.50;4860661;29;20041;-77
2022/11/03 07:36:47;;;;;;;61.33;23.05;;;;;;;10.43;100.00;93002.94;4862429;29;20048;-78
2022/11/03 07:39:18;;;;;;;56.63;23.40;;;;;;;10.36;100.00;93000.63;4860456;29;20085;-80
2022/11/03 07:41:44;;;;;;;190.07;25.25;;;;;;;10.36;100.00;93005.88;4859452;29;20038;-78
2022/11/03 07:44:22;;;;;;;66.47;24.35;;;;;;;10.37;100.00;93002.19;4847956;29;20046;-79
2022/11/03 07:46:49;;;;;;;66.95;24.48;;;;;;;10.44;100.00;93001.88;4856652;29;20041;-78
2022/11/03 07:49:29;;;;;;;54.50;22.63;;;;;;;10.51;100.00;92992.66;4868088;29;20111;-79
2022/11/03 07:51:58;;;;;;;55.45;23.67;;;;;;;10.52;100.00;92999.47;4876166;29;20199;-80
2022/11/03 07:54:31;;;;;;;59.10;24.02;;;;;;;10.48;100.00;92992.44;4860994;29;20097;-80
2022/11/03 07:57:00;;;;;;;261.08;26.33;;;;;;;10.55;100.00;92998.91;4862525;29;20097;-79
2022/11/03 07:59:35;;;;;;;1999.90;99.25;;;;;;;10.50;100.00;92996.34;4850587;29;20522;-79
2022/11/03 08:02:05;;;;;;;1999.90;132.85;;;;;;;10.28;100.00;92995.94;4880413;29;20116;-79
2022/11/03 08:04:34;;;;;;;1999.90;121.57;;;;;;;10.25;100.00;92996.50;4848761;29;20041;-76
2022/11/03 08:07:00;;;;;;;1577.20;56.05;;;;;;;10.23;100.00;92985.50;4883737;29;20032;-77
2022/11/03 08:09:26;;;;;;;164.95;22.30;;;;;;;10.29;100.00;92989.66;4883154;29;20037;-78
2022/11/03 08:11:51;;;;;;;127.70;23.30;;;;;;;10.34;100.00;92987.81;4879145;29;20055;-79
2022/11/03 08:14:17;;;;;;;56.70;22.20;;;;;;;10.45;100.00;92987.72;4865269;29;20415;-80
2022/11/03 08:16:42;;;;;;;66.65;23.08;;;;;;;10.45;100.00;92982.50;4858991;29;20041;-78
2022/11/03 08:19:08;;;;;;;52.97;21.83;;;;;;;10.47;100.00;92981.19;4861062;29;20037;-78
2022/11/03 08:21:34;;;;;;;61.28;24.65;;;;;;;10.52;100.00;92970.69;4866035;29;20057;-78
2022/11/03 08:24:00;;;;;;;62.13;24.55;;;;;;;10.64;100.00;92980.78;4847388;29;20041;-78
2022/11/03 08:26:28;;;;;;;68.07;25.25;;;;;;;10.69;100.00;92972.88;4860309;29;20054;-78
2022/11/03 08:28:54;;;;;;;62.55;24.88;;;;;;;10.76;100.00;92967.34;4849145;29;20121;-79
2022/11/03 08:31:19;;;;;;;54.35;24.10;;;;;;;10.80;100.00;92970.97;4880506;29;20029;-81
2022/11/03 08:33:45;;;;;;;58.55;22.88;;;;;;;10.84;100.00;92966.75;4860545;29;20519;-81
2022/11/03 08:36:11;;;;;;;56.47;22.75;;;;;;;10.87;100.00;92966.19;4867941;29;20132;-77
2022/11/03 08:38:37;;;;;;;50.42;21.95;;;;;;;10.91;100.00;92963.81;4879236;29;20034;-80
2022/11/03 08:41:03;;;;;;;173.18;24.33;;;;;;;10.93;100.00;92951.22;4871354;29;20034;-81
2022/11/03 08:43:29;;;;;;;1017.65;40.88;;;;;;;11.00;100.00;92949.84;4865752;29;20049;-81
2022/11/03 08:45:54;;;;;;;474.58;28.15;;;;;;;10.89;100.00;92950.22;4868592;29;20034;-81
2022/11/03 08:48:22;;;;;;;779.75;39.17;;;;;;;10.71;100.00;92938.59;4875722;29;20046;-79
2022/11/03 08:50:53;;;;;;;1387.30;47.13;;;;;;;10.62;100.00;92941.78;4852549;29;20037;-83
2022/11/03 08:53:19;;;;;;;1559.43;48.05;;;;;;;10.49;100.00;92947.69;4861469;29;20045;-80
2022/11/03 08:55:45;;;;;;;244.27;22.75;;;;;;;10.49;100.00;92942.44;4856865;29;20037;-80
2022/11/03 08:58:11;;;;;;;856.58;39.20;;;;;;;10.47;100.00;92939.31;4870217;29;20045;-81
2022/11/03 09:00:36;;;;;;;424.35;25.40;;;;;;;10.49;100.00;92939.03;4861031;29;20044;-80
2022/11/03 09:03:02;;;;;;;271.13;26.77;;;;;;;10.46;100.00;92929.88;4864435;29;20532;-78
2022/11/03 09:05:27;;;;;;;633.72;24.85;;;;;;;10.60;100.00;92924.78;4861952;29;20086;-80
2022/11/03 09:07:53;;;;;;;1154.38;32.25;;;;;;;10.52;100.00;92922.78;4858452;29;20041;-79
2022/11/03 09:10:18;;;;;;;1999.90;79.30;;;;;;;10.34;100.00;92916.38;4863156;29;20043;-80
2022/11/03 09:12:44;;;;;;;1528.63;51.42;;;;;;;10.34;100.00;92913.78;4861923;29;20034;-79
2022/11/03 09:15:10;;;;;;;144.23;22.90;;;;;;;10.35;100.00;92918.72;4859440;29;20037;-79
2022/11/03 09:17:36;;;;;;;59.45;21.08;;;;;;;10.39;100.00;92917.13;4852378;29;20121;-79
2022/11/03 09:20:02;;;;;;;288.45;28.17;;;;;;;10.43;100.00;92906.88;4866297;29;20077;-79
2022/11/03 09:22:28;;;;;;;94.43;22.17;;;;;;;10.42;100.00;92921.00;4868817;29;20045;-80
2022/11/03 09:24:54;;;;;;;941.25;42.90;;;;;;;10.52;100.00;92920.94;4879141;29;20041;-80
2022/11/03 09:27:19;;;;;;;1166.85;38.00;;;;;;;10.65;100.00;92918.72;4866521;29;20037;-79
2022/11/03 09:29:45;;;;;;;866.58;32.67;;;;;;;10.43;100.00;92912.13;4861714;29;20105;-80
2022/11/03 09:32:11;;;;;;;570.50;25.50;;;;;;;10.46;100.00;92916.03;4862077;29;20056;-79
2022/11/03 09:34:36;;;;;;;174.80;16.42;;;;;;;10.41;100.00;92925.47;4867141;29;20070;-79
2022/11/03 09:37:02;;;;;;;623.30;26.45;;;;;;;10.38;100.00;92925.22;4853647;29;20046;-78
2022/11/03 09:39:27;;;;;;;202.20;13.85;;;;;;;10.36;100.00;92922.13;4876577;29;20072;-79
2022/11/03 09:41:54;;;;;;;97.88;14.80;;;;;;;10.33;100.00;92922.66;4854925;29;20048;-78
2022/11/03 09:44:20;;;;;;;26.00;12.35;;;;;;;10.37;100.00;92923.69;4880974;29;20390;-79
2022/11/03 09:46:46;;;;;;;27.60;11.43;;;;;;;10.34;100.00;92913.78;4854778;29;20090;-79
2022/11/03 09:49:17;;;;;;;25.85;11.82;;;;;;;10.37;100.00;92913.22;4859183;29;20094;-79
2022/11/03 09:51:44;;;;;;;32.10;14.23;;;;;;;10.36;100.00;92911.66;4849129;29;20042;-79
2022/11/03 09:54:14;;;;;;;27.20;10.35;;;;;;;10.40;100.00;92910.03;4855395;29;20029;-79
2022/11/03 09:56:41;;;;;;;24.13;10.57;;;;;;;10.57;100.00;92912.28;4872768;29;20126;-79
2022/11/03 09:59:18;;;;;;;30.83;11.77;;;;;;;10.42;100.00;92900.06;4865131;29;20041;-79
2022/11/03 10:01:52;;;;;;;33.88;12.70;;;;;;;10.47;100.00;92902.69;4862675;29;20426;-79
2022/11/03 10:04:36;;;;;;;143.48;12.20;;;;;;;10.51;100.00;92901.03;4866320;29;20053;-78
2022/11/03 10:07:01;;;;;;;684.22;22.42;;;;;;;10.56;100.00;92906.25;4871811;29;20148;-78
2022/11/03 10:09:28;;;;;;;17.90;8.85;;;;;;;10.42;100.00;92905.31;4861943;29;20049;-79
2022/11/03 10:11:54;;;;;;;30.90;12.05;;;;;;;10.39;100.00;92893.56;4860695;29;20037;-79
2022/11/03 10:14:21;;;;;;;23.83;9.73;;;;;;;10.37;100.00;92903.50;4864711;29;20076;-79
2022/11/03 10:17:05;;;;;;;17.70;7.75;;;;;;;10.59;100.00;92905.69;4863320;29;20405;-80
2022/11/03 10:19:31;;;;;;;25.95;9.88;;;;;;;10.45;100.00;92903.97;4862022;29;20029;-79
2022/11/03 10:21:57;;;;;;;25.88;13.23;;;;;;;10.37;100.00;92895.66;4862794;29;20389;-79
2022/11/03 10:24:24;;;;;;;23.20;10.25;;;;;;;10.31;100.00;92891.56;4858870;29;20041;-81
2022/11/03 10:26:53;;;;;;;21.60;9.60;;;;;;;10.36;100.00;92890.72;4869440;29;20122;-79
2022/11/03 10:29:22;;;;;;;28.73;11.90;;;;;;;10.38;100.00;92888.59;4866879;29;20097;-81
2022/11/03 10:31:54;;;;;;;39.20;19.10;;;;;;;10.40;100.00;92881.25;4859895;29;20042;-80
2022/11/03 10:34:27;;;;;;;47.92;23.92;;;;;;;10.47;100.00;92875.69;4863395;29;20056;-80
2022/11/03 10:37:19;;;;;;;26.45;12.02;;;;;;;10.52;100.00;92863.34;4855329;29;20037;-79
2022/11/03 10:39:50;;;;;;;19.35;8.35;;;;;;;10.57;100.00;92855.44;4863023;29;20071;-82
2022/11/03 10:42:24;;;;;;;16.05;7.68;;;;;;;10.66;100.00;92855.63;4857205;29;20389;-80
2022/11/03 10:45:07;;;;;;;17.83;8.70;;;;;;;10.71;100.00;92852.19;4858363;29;20128;-80
2022/11/03 10:47:33;;;;;;;18.63;8.75;;;;;;;10.83;100.00;92857.84;4864105;29;20033;-81
2022/11/03 10:50:12;;;;;;;16.50;7.82;;;;;;;10.92;100.00;92853.53;4880602;29;20128;-80
2022/11/03 10:52:38;;;;;;;14.93;7.32;;;;;;;11.04;100.00;92853.91;4863433;29;20041;-80
2022/11/03 10:55:03;;;;;;;14.23;6.82;;;;;;;11.09;100.00;92850.47;4858106;29;20053;-80
2022/11/03 10:57:31;;;;;;;12.85;7.20;;;;;;;11.15;100.00;92846.72;4861836;29;20061;-79
2022/11/03 10:59:58;;;;;;;15.38;8.75;;;;;;;11.22;100.00;92851.63;4861188;29;20627;-80
2022/11/03 11:02:30;;;;;;;19.75;9.80;;;;;;;11.30;100.00;92850.22;4866204;29;20064;-80
2022/11/03 11:05:02;;;;;;;17.83;7.55;;;;;;;11.38;100.00;92845.13;4864695;29;20037;-79
2022/11/03 11:07:42;;;;;;;18.95;7.65;;;;;;;11.59;100.00;92850.09;4864467;29;20045;-78
2022/11/03 11:10:16;;;;;;;20.27;8.77;;;;;;;11.88;100.00;92840.28;4863588;29;20037;-79
2022/11/03 11:13:23;;;;;;;15.23;7.25;;;;;;;12.18;100.00;92840.91;4854438;29;20067;-79
2022/11/03 11:15:53;;;;;;;28.00;11.95;;;;;;;12.29;100.00;92833.63;4863024;29;20042;-80
2022/11/03 11:18:28;;;;;;;24.00;10.00;;;;;;;12.23;100.00;92835.56;4864729;29;20502;-79
2022/11/03 11:20:55;;;;;;;33.53;12.23;;;;;;;12.14;100.00;92821.53;4861644;29;20037;-80
2022/11/03 11:23:26;;;;;;;408.58;20.67;;;;;;;12.16;100.00;92814.16;4863798;29;20030;-82
2022/11/03 11:26:13;;;;;;;1286.18;39.78;;;;;;;11.86;100.00;92810.91;4861675;29;20037;-79
2022/11/03 11:28:41;;;;;;;662.33;29.38;;;;;;;11.50;100.00;92807.25;4861991;29;20037;-80
2022/11/03 11:31:25;;;;;;;611.47;25.17;;;;;;;11.27;100.00;92804.38;4866873;29;20077;-79
2022/11/03 11:34:09;;;;;;;38.03;16.88;;;;;;;10.93;100.00;92805.31;4864831;29;20283;-79
2022/11/03 11:37:20;;;;;;;1940.93;60.47;;;;;;;11.00;100.00;92805.75;4848101;29;20074;-80
2022/11/03 11:39:46;;;;;;;468.67;21.30;;;;;;;10.97;100.00;92797.69;4843462;29;20516;-78
2022/11/03 11:42:16;;;;;;;990.38;42.55;;;;;;;10.79;100.00;92792.13;4868810;29;20121;-79
2022/11/03 11:45:02;;;;;;;650.10;30.77;;;;;;;10.67;100.00;92785.72;4862028;29;20084;-79
2022/11/03 11:47:39;;;;;;;58.03;19.92;;;;;;;10.74;100.00;92792.19;4856511;29;20232;-79
2022/11/03 11:50:13;;;;;;;35.03;16.20;;;;;;;11.08;100.00;92780.00;4874731;29;20037;-79
2022/11/03 11:52:54;;;;;;;41.15;19.02;;;;;;;11.05;100.00;92778.72;4863116;29;20026;-79
2022/11/03 11:55:47;;;;;;;44.28;19.48;;;;;;;11.19;100.00;92777.00;4857059;29;20080;-79
2022/11/03 11:58:16;;;;;;;38.72;18.10;;;;;;;11.22;100.00;92767.78;4855924;29;20038;-78
2022/11/03 12:00:54;;;;;;;29.20;14.48;;;;;;;11.41;100.00;92765.91;4878854;29;20037;-79
2022/11/03 12:03:28;;;;;;;28.98;13.57;;;;;;;11.44;100.00;92765.38;4867906;29;20116;-79
2022/11/03 12:05:53;;;;;;;35.63;16.92;;;;;;;11.57;100.00;92765.72;4865802;29;20476;-80
2022/11/03 12:08:20;;;;;;;61.88;14.60;;;;;;;11.50;100.00;92766.06;4877963;29;20026;-79
2022/11/03 12:11:00;;;;;;;39.88;18.20;;;;;;;11.36;100.00;92760.75;4858865;29;20524;-80
2022/11/03 12:13:37;;;;;;;32.20;15.88;;;;;;;11.26;100.00;92760.91;4860524;29;20041;-79
2022/11/03 12:16:03;;;;;;;83.53;20.75;;;;;;;11.20;100.00;92756.78;4889850;29;20072;-81
2022/11/03 12:18:37;;;;;;;39.72;19.70;;;;;;;10.95;100.00;92750.06;4863102;29;20124;-81
2022/11/03 12:21:24;;;;;;;426.88;27.95;;;;;;;10.92;100.00;92740.91;4857967;29;20034;-80
2022/11/03 12:23:49;;;;;;;31.02;14.55;;;;;;;10.78;100.00;92732.19;4853846;29;20052;-79
2022/11/03 12:26:27;;;;;;;35.92;16.33;;;;;;;10.72;100.00;92728.84;4842067;29;20484;-80
2022/11/03 12:28:53;;;;;;;45.35;20.05;;;;;;;10.75;100.00;92717.03;4854695;29;20034;-80
2022/11/03 12:31:19;;;;;;;57.17;24.98;;;;;;;10.64;100.00;92705.91;4858347;29;20040;-80
2022/11/03 12:33:45;;;;;;;48.55;21.65;;;;;;;10.75;100.00;92688.22;4861775;29;20049;-80
2022/11/03 12:36:11;;;;;;;45.47;20.95;;;;;;;10.70;100.00;92681.22;4875960;29;20045;-80
2022/11/03 12:38:36;;;;;;;62.08;26.05;;;;;;;10.74;100.00;92681.41;4852521;29;20136;-79
2022/11/03 12:41:20;;;;;;;50.83;24.00;;;;;;;10.78;100.00;92664.09;4851364;29;20500;-80